createdAt,value
2018-09-06T00:00:31.117Z,1013.44
2018-09-06T00:01:31.186Z,1013.42
2018-09-06T00:02:31.476Z,1013.42
2018-09-06T00:03:31.210Z,1013.42
2018-09-06T00:04:31.832Z,1013.45
2018-09-06T00:05:31.223Z,1013.43
2018-09-06T00:06:31.393Z,1013.45
2018-09-06T00:07:31.140Z,1013.45
2018-09-06T00:08:31.370Z,1013.38
2018-09-06T00:09:31.204Z,1013.42
2018-09-06T00:10:31.341Z,1013.4
2018-09-06T00:11:31.192Z,1013.39
2018-09-06T00:12:31.247Z,1013.34
2018-09-06T00:13:31.496Z,1013.37
2018-09-06T00:14:31.460Z,1013.36
2018-09-06T00:15:31.220Z,1013.35
2018-09-06T00:16:31.443Z,1013.37
2018-09-06T00:17:31.131Z,1013.3
2018-09-06T00:18:31.440Z,1013.35
2018-09-06T00:19:31.230Z,1013.34
2018-09-06T00:20:31.527Z,1013.35
2018-09-06T00:21:31.071Z,1013.28
2018-09-06T00:22:31.342Z,1013.3
2018-09-06T00:23:31.177Z,1013.32
2018-09-06T00:24:31.255Z,1013.29
2018-09-06T00:25:31.151Z,1013.29
2018-09-06T00:26:31.302Z,1013.3
2018-09-06T00:27:31.130Z,1013.28
2018-09-06T00:28:31.397Z,1013.28
2018-09-06T00:29:31.096Z,1013.28
2018-09-06T00:30:31.366Z,1013.28
2018-09-06T00:31:31.330Z,1013.3
2018-09-06T00:32:31.405Z,1013.27
2018-09-06T00:33:31.132Z,1013.24
2018-09-06T00:34:31.272Z,1013.28
2018-09-06T00:35:31.284Z,1013.26
2018-09-06T00:36:31.438Z,1013.28
2018-09-06T00:37:31.242Z,1013.22
2018-09-06T00:38:31.428Z,1013.24
2018-09-06T00:39:31.284Z,1013.23
2018-09-06T00:40:31.283Z,1013.22
2018-09-06T00:41:31.217Z,1013.22
2018-09-06T00:42:31.206Z,1013.21
2018-09-06T00:43:31.128Z,1013.22
2018-09-06T00:44:31.627Z,1013.19
2018-09-06T00:45:31.142Z,1013.17
2018-09-06T00:46:31.331Z,1013.16
2018-09-06T00:47:31.167Z,1013.16
2018-09-06T00:48:31.388Z,1013.18
2018-09-06T00:49:31.151Z,1013.17
2018-09-06T00:50:31.460Z,1013.16
2018-09-06T00:51:31.269Z,1013.16
2018-09-06T00:52:31.244Z,1013.19
2018-09-06T00:53:31.242Z,1013.15
2018-09-06T00:54:31.423Z,1013.17
2018-09-06T00:55:31.151Z,1013.16
2018-09-06T00:56:31.241Z,1013.12
2018-09-06T00:57:31.077Z,1013.13
2018-09-06T00:58:31.201Z,1013.11
2018-09-06T00:59:31.195Z,1013.12
2018-09-06T01:00:31.356Z,1013.13
2018-09-06T01:01:31.193Z,1013.08
2018-09-06T01:02:31.200Z,1013.07
2018-09-06T01:03:31.452Z,1013.09
2018-09-06T01:04:31.310Z,1013.11
2018-09-06T01:05:31.229Z,1013.12
2018-09-06T01:06:31.389Z,1013.12
2018-09-06T01:07:31.152Z,1013.09
2018-09-06T01:08:31.303Z,1013.11
2018-09-06T01:09:31.112Z,1013.09
2018-09-06T01:10:31.274Z,1013.11
2018-09-06T01:11:31.135Z,1013.08
2018-09-06T01:12:31.387Z,1013.06
2018-09-06T01:13:31.447Z,1013.07
2018-09-06T01:14:31.380Z,1013.09
2018-09-06T01:15:31.275Z,1013.07
2018-09-06T01:16:31.332Z,1013.09
2018-09-06T01:17:31.217Z,1013.06
2018-09-06T01:18:31.228Z,1013.09
2018-09-06T01:19:31.223Z,1013.03
2018-09-06T01:20:31.300Z,1013.05
2018-09-06T01:21:31.133Z,1013.05
2018-09-06T01:22:31.433Z,1013.02
2018-09-06T01:23:31.250Z,1013.03
2018-09-06T01:24:31.254Z,1013.06
2018-09-06T01:25:31.285Z,1013
2018-09-06T01:26:31.297Z,1013.01
2018-09-06T01:27:31.107Z,1012.98
2018-09-06T01:28:31.338Z,1013.01
2018-09-06T01:29:31.107Z,1013
2018-09-06T01:30:31.379Z,1012.99
2018-09-06T01:31:31.215Z,1012.99
2018-09-06T01:32:31.224Z,1013.01
2018-09-06T01:33:31.364Z,1013.03
2018-09-06T01:34:31.375Z,1012.98
2018-09-06T01:35:31.189Z,1012.97
2018-09-06T01:36:31.265Z,1012.99
2018-09-06T01:37:31.187Z,1012.99
2018-09-06T01:38:31.393Z,1012.96
2018-09-06T01:39:31.212Z,1012.95
2018-09-06T01:40:31.220Z,1012.95
2018-09-06T01:41:31.224Z,1012.94
2018-09-06T01:42:31.384Z,1012.91
2018-09-06T01:43:31.136Z,1012.93
2018-09-06T01:44:31.247Z,1012.91
2018-09-06T01:45:31.363Z,1012.89
2018-09-06T01:46:31.465Z,1012.94
2018-09-06T01:47:31.100Z,1012.9
2018-09-06T01:48:31.363Z,1012.93
2018-09-06T01:49:31.110Z,1012.95
2018-09-06T01:50:31.727Z,1012.89
2018-09-06T01:51:31.503Z,1012.97
2018-09-06T01:52:31.236Z,1012.9
2018-09-06T01:53:31.247Z,1012.92
2018-09-06T01:54:31.404Z,1012.89
2018-09-06T01:55:31.194Z,1012.85
2018-09-06T01:56:31.233Z,1012.86
2018-09-06T01:57:31.475Z,1012.82
2018-09-06T01:58:31.548Z,1012.84
2018-09-06T01:59:31.270Z,1012.85
2018-09-06T02:00:31.471Z,1012.85
2018-09-06T02:01:31.071Z,1012.82
2018-09-06T02:02:31.262Z,1012.8
2018-09-06T02:03:31.173Z,1012.79
2018-09-06T02:04:31.320Z,1012.8
2018-09-06T02:05:31.164Z,1012.8
2018-09-06T02:06:31.389Z,1012.78
2018-09-06T02:07:31.225Z,1012.8
2018-09-06T02:08:31.269Z,1012.8
2018-09-06T02:09:31.335Z,1012.79
2018-09-06T02:10:31.176Z,1012.78
2018-09-06T02:11:31.167Z,1012.77
2018-09-06T02:12:31.347Z,1012.76
2018-09-06T02:13:31.168Z,1012.79
2018-09-06T02:14:31.423Z,1012.78
2018-09-06T02:15:31.174Z,1012.8
2018-09-06T02:16:31.407Z,1012.78
2018-09-06T02:17:31.182Z,1012.79
2018-09-06T02:18:31.349Z,1012.78
2018-09-06T02:19:31.255Z,1012.81
2018-09-06T02:20:31.403Z,1012.81
2018-09-06T02:21:31.216Z,1012.79
2018-09-06T02:22:31.354Z,1012.74
2018-09-06T02:23:31.158Z,1012.79
2018-09-06T02:24:31.683Z,1012.75
2018-09-06T02:25:31.158Z,1012.77
2018-09-06T02:26:31.431Z,1012.76
2018-09-06T02:27:31.177Z,1012.76
2018-09-06T02:28:31.375Z,1012.77
2018-09-06T02:29:31.184Z,1012.75
2018-09-06T02:30:31.377Z,1012.74
2018-09-06T02:31:31.392Z,1012.73
2018-09-06T02:32:31.449Z,1012.72
2018-09-06T02:33:31.269Z,1012.73
2018-09-06T02:34:31.244Z,1012.69
2018-09-06T02:35:31.289Z,1012.69
2018-09-06T02:36:31.403Z,1012.67
2018-09-06T02:37:31.283Z,1012.69
2018-09-06T02:38:31.323Z,1012.68
2018-09-06T02:39:31.121Z,1012.7
2018-09-06T02:40:31.654Z,1012.69
2018-09-06T02:41:31.253Z,1012.67
2018-09-06T02:42:31.253Z,1012.71
2018-09-06T02:43:31.191Z,1012.65
2018-09-06T02:44:31.239Z,1012.58
2018-09-06T02:45:31.131Z,1012.61
2018-09-06T02:46:31.501Z,1012.59
2018-09-06T02:47:31.074Z,1012.59
2018-09-06T02:48:31.392Z,1012.58
2018-09-06T02:49:31.109Z,1012.59
2018-09-06T02:50:31.541Z,1012.53
2018-09-06T02:51:31.284Z,1012.51
2018-09-06T02:52:31.492Z,1012.56
2018-09-06T02:53:31.185Z,1012.53
2018-09-06T02:54:31.492Z,1012.55
2018-09-06T02:55:31.260Z,1012.52
2018-09-06T02:56:31.347Z,1012.52
2018-09-06T02:57:31.570Z,1012.5
2018-09-06T02:58:31.216Z,1012.49
2018-09-06T02:59:31.197Z,1012.55
2018-09-06T03:00:31.244Z,1012.5
2018-09-06T03:01:31.058Z,1012.51
2018-09-06T03:02:31.320Z,1012.5
2018-09-06T03:03:31.058Z,1012.47
2018-09-06T03:04:31.472Z,1012.43
2018-09-06T03:05:31.225Z,1012.4
2018-09-06T03:06:31.356Z,1012.42
2018-09-06T03:07:31.140Z,1012.39
2018-09-06T03:08:31.378Z,1012.41
2018-09-06T03:09:31.310Z,1012.4
2018-09-06T03:10:31.352Z,1012.4
2018-09-06T03:11:31.104Z,1012.4
2018-09-06T03:12:31.377Z,1012.38
2018-09-06T03:13:31.216Z,1012.37
2018-09-06T03:14:31.526Z,1012.41
2018-09-06T03:15:31.444Z,1012.39
2018-09-06T03:16:31.340Z,1012.43
2018-09-06T03:17:31.146Z,1012.42
2018-09-06T03:18:31.288Z,1012.41
2018-09-06T03:19:31.080Z,1012.39
2018-09-06T03:20:31.529Z,1012.42
2018-09-06T03:21:31.218Z,1012.43
2018-09-06T03:22:31.279Z,1012.41
2018-09-06T03:23:31.304Z,1012.42
2018-09-06T03:24:31.310Z,1012.43
2018-09-06T03:25:31.236Z,1012.45
2018-09-06T03:26:31.364Z,1012.45
2018-09-06T03:27:31.082Z,1012.45
2018-09-06T03:28:31.326Z,1012.46
2018-09-06T03:29:31.203Z,1012.48
2018-09-06T03:30:31.657Z,1012.5
2018-09-06T03:31:31.145Z,1012.48
2018-09-06T03:32:31.279Z,1012.47
2018-09-06T03:33:31.164Z,1012.49
2018-09-06T03:34:31.378Z,1012.51
2018-09-06T03:35:31.474Z,1012.5
2018-09-06T03:36:31.345Z,1012.48
2018-09-06T03:37:31.717Z,1012.49
2018-09-06T03:38:31.405Z,1012.51
2018-09-06T03:39:31.273Z,1012.49
2018-09-06T03:40:31.110Z,1012.44
2018-09-06T03:41:31.240Z,1012.46
2018-09-06T03:42:31.355Z,1012.47
2018-09-06T03:43:31.218Z,1012.46
2018-09-06T03:44:31.344Z,1012.47
2018-09-06T03:45:31.252Z,1012.48
2018-09-06T03:46:31.367Z,1012.46
2018-09-06T03:47:31.405Z,1012.48
2018-09-06T03:48:31.396Z,1012.47
2018-09-06T03:49:31.282Z,1012.43
2018-09-06T03:50:31.958Z,1012.46
2018-09-06T03:51:31.355Z,1012.5
2018-09-06T03:52:31.442Z,1012.46
2018-09-06T03:53:31.146Z,1012.48
2018-09-06T03:54:31.473Z,1012.48
2018-09-06T03:55:31.220Z,1012.48
2018-09-06T03:56:31.148Z,1012.45
2018-09-06T03:57:31.651Z,1012.44
2018-09-06T03:58:31.523Z,1012.45
2018-09-06T03:59:31.171Z,1012.46
2018-09-06T04:00:31.502Z,1012.44
2018-09-06T04:01:31.229Z,1012.45
2018-09-06T04:02:31.389Z,1012.44
2018-09-06T04:03:31.249Z,1012.41
2018-09-06T04:04:31.174Z,1012.42
2018-09-06T04:05:31.178Z,1012.45
2018-09-06T04:06:31.303Z,1012.43
2018-09-06T04:07:31.315Z,1012.46
2018-09-06T04:08:31.268Z,1012.42
2018-09-06T04:09:31.151Z,1012.47
2018-09-06T04:10:31.259Z,1012.42
2018-09-06T04:11:31.127Z,1012.48
2018-09-06T04:12:31.172Z,1012.48
2018-09-06T04:13:31.122Z,1012.49
2018-09-06T04:14:31.247Z,1012.49
2018-09-06T04:15:31.093Z,1012.45
2018-09-06T04:16:31.490Z,1012.44
2018-09-06T04:17:31.122Z,1012.41
2018-09-06T04:18:31.583Z,1012.44
2018-09-06T04:19:31.148Z,1012.46
2018-09-06T04:20:31.323Z,1012.44
2018-09-06T04:21:31.079Z,1012.45
2018-09-06T04:22:31.750Z,1012.46
2018-09-06T04:23:31.113Z,1012.45
2018-09-06T04:24:31.358Z,1012.47
2018-09-06T04:25:31.258Z,1012.43
2018-09-06T04:26:31.235Z,1012.47
2018-09-06T04:27:31.334Z,1012.46
2018-09-06T04:28:31.643Z,1012.44
2018-09-06T04:29:31.297Z,1012.46
2018-09-06T04:30:31.288Z,1012.46
2018-09-06T04:31:31.244Z,1012.47
2018-09-06T04:32:31.373Z,1012.5
2018-09-06T04:33:31.311Z,1012.48
2018-09-06T04:34:31.507Z,1012.51
2018-09-06T04:35:31.494Z,1012.51
2018-09-06T04:36:31.242Z,1012.5
2018-09-06T04:37:31.244Z,1012.46
2018-09-06T04:38:31.286Z,1012.45
2018-09-06T04:39:31.052Z,1012.49
2018-09-06T04:40:31.243Z,1012.45
2018-09-06T04:41:31.277Z,1012.44
2018-09-06T04:42:31.356Z,1012.45
2018-09-06T04:43:31.040Z,1012.42
2018-09-06T04:44:31.333Z,1012.43
2018-09-06T04:45:31.218Z,1012.43
2018-09-06T04:46:31.486Z,1012.44
2018-09-06T04:47:31.107Z,1012.4
2018-09-06T04:48:31.204Z,1012.4
2018-09-06T04:49:31.148Z,1012.39
2018-09-06T04:50:31.512Z,1012.41
2018-09-06T04:51:31.431Z,1012.38
2018-09-06T04:52:31.326Z,1012.42
2018-09-06T04:53:31.154Z,1012.42
2018-09-06T04:54:31.087Z,1012.43
2018-09-06T04:55:31.252Z,1012.43
2018-09-06T04:56:31.390Z,1012.43
2018-09-06T04:57:31.388Z,1012.44
2018-09-06T04:58:31.497Z,1012.43
2018-09-06T04:59:31.051Z,1012.44
2018-09-06T05:00:31.381Z,1012.46
2018-09-06T05:01:31.342Z,1012.42
2018-09-06T05:02:31.135Z,1012.4
2018-09-06T05:03:31.433Z,1012.39
2018-09-06T05:04:31.281Z,1012.43
2018-09-06T05:05:31.463Z,1012.38
2018-09-06T05:06:31.188Z,1012.39
2018-09-06T05:07:31.130Z,1012.4
2018-09-06T05:08:31.369Z,1012.45
2018-09-06T05:09:31.155Z,1012.42
2018-09-06T05:10:31.344Z,1012.41
2018-09-06T05:11:31.065Z,1012.43
2018-09-06T05:12:31.254Z,1012.46
2018-09-06T05:13:31.132Z,1012.44
2018-09-06T05:14:31.422Z,1012.47
2018-09-06T05:15:31.089Z,1012.48
2018-09-06T05:16:31.214Z,1012.42
2018-09-06T05:17:31.388Z,1012.49
2018-09-06T05:18:31.408Z,1012.49
2018-09-06T05:19:31.126Z,1012.48
2018-09-06T05:20:31.437Z,1012.47
2018-09-06T05:21:31.115Z,1012.51
2018-09-06T05:22:31.224Z,1012.48
2018-09-06T05:23:31.382Z,1012.48
2018-09-06T05:24:31.333Z,1012.43
2018-09-06T05:25:31.164Z,1012.44
2018-09-06T05:26:31.371Z,1012.46
2018-09-06T05:27:31.142Z,1012.44
2018-09-06T05:28:31.320Z,1012.44
2018-09-06T05:29:31.154Z,1012.41
2018-09-06T05:30:31.254Z,1012.38
2018-09-06T05:31:31.124Z,1012.38
2018-09-06T05:32:31.879Z,1012.38
2018-09-06T05:33:31.362Z,1012.39
2018-09-06T05:34:31.228Z,1012.34
2018-09-06T05:35:31.105Z,1012.38
2018-09-06T05:36:31.798Z,1012.37
2018-09-06T05:37:31.021Z,1012.39
2018-09-06T05:38:31.216Z,1012.41
2018-09-06T05:39:31.325Z,1012.36
2018-09-06T05:40:31.398Z,1012.38
2018-09-06T05:41:31.234Z,1012.39
2018-09-06T05:42:31.526Z,1012.39
2018-09-06T05:43:31.423Z,1012.39
2018-09-06T05:44:31.180Z,1012.44
2018-09-06T05:45:31.129Z,1012.41
2018-09-06T05:46:31.371Z,1012.44
2018-09-06T05:47:31.537Z,1012.43
2018-09-06T05:48:31.656Z,1012.45
2018-09-06T05:49:31.266Z,1012.45
2018-09-06T05:50:31.313Z,1012.49
2018-09-06T05:51:31.171Z,1012.5
2018-09-06T05:52:31.057Z,1012.47
2018-09-06T05:53:31.447Z,1012.51
2018-09-06T05:54:31.335Z,1012.54
2018-09-06T05:55:31.156Z,1012.52
2018-09-06T05:56:31.355Z,1012.54
2018-09-06T05:57:31.105Z,1012.54
2018-09-06T05:58:31.249Z,1012.54
2018-09-06T05:59:31.879Z,1012.52
2018-09-06T06:00:31.295Z,1012.5
2018-09-06T06:01:31.103Z,1012.5
2018-09-06T06:02:31.473Z,1012.5
2018-09-06T06:03:31.179Z,1012.48
2018-09-06T06:04:31.354Z,1012.47
2018-09-06T06:05:31.192Z,1012.48
2018-09-06T06:06:31.387Z,1012.46
2018-09-06T06:07:31.262Z,1012.45
2018-09-06T06:08:31.305Z,1012.45
2018-09-06T06:09:31.362Z,1012.46
2018-09-06T06:10:31.151Z,1012.44
2018-09-06T06:11:31.189Z,1012.43
2018-09-06T06:12:31.599Z,1012.47
2018-09-06T06:13:31.451Z,1012.46
2018-09-06T06:14:31.305Z,1012.44
2018-09-06T06:15:31.369Z,1012.45
2018-09-06T06:16:31.314Z,1012.46
2018-09-06T06:17:31.179Z,1012.46
2018-09-06T06:18:31.219Z,1012.42
2018-09-06T06:19:31.382Z,1012.4
2018-09-06T06:20:31.036Z,1012.41
2018-09-06T06:21:31.324Z,1012.38
2018-09-06T06:22:31.281Z,1012.4
2018-09-06T06:23:31.417Z,1012.39
2018-09-06T06:24:31.248Z,1012.38
2018-09-06T06:25:31.260Z,1012.41
2018-09-06T06:26:31.275Z,1012.4
2018-09-06T06:27:31.141Z,1012.45
2018-09-06T06:28:31.230Z,1012.39
2018-09-06T06:29:31.210Z,1012.41
2018-09-06T06:30:31.088Z,1012.42
2018-09-06T06:31:31.179Z,1012.44
2018-09-06T06:32:31.220Z,1012.42
2018-09-06T06:33:31.240Z,1012.43
2018-09-06T06:34:31.356Z,1012.41
2018-09-06T06:35:31.523Z,1012.42
2018-09-06T06:36:31.304Z,1012.38
2018-09-06T06:37:31.056Z,1012.38
2018-09-06T06:38:31.146Z,1012.34
2018-09-06T06:39:31.187Z,1012.36
2018-09-06T06:40:31.637Z,1012.36
2018-09-06T06:41:31.315Z,1012.38
2018-09-06T06:42:31.206Z,1012.39
2018-09-06T06:43:31.111Z,1012.38
2018-09-06T06:44:31.285Z,1012.36
2018-09-06T06:45:31.277Z,1012.33
2018-09-06T06:46:31.239Z,1012.35
2018-09-06T06:47:31.345Z,1012.31
2018-09-06T06:48:31.221Z,1012.34
2018-09-06T06:49:31.216Z,1012.31
2018-09-06T06:50:31.759Z,1012.33
2018-09-06T06:51:31.275Z,1012.31
2018-09-06T06:52:31.320Z,1012.32
2018-09-06T06:53:31.347Z,1012.36
2018-09-06T06:54:31.323Z,1012.35
2018-09-06T06:55:31.963Z,1012.37
2018-09-06T06:56:31.479Z,1012.37
2018-09-06T06:57:31.194Z,1012.35
2018-09-06T06:58:31.342Z,1012.36
2018-09-06T06:59:31.144Z,1012.41
2018-09-06T07:00:31.256Z,1012.43
2018-09-06T07:01:31.301Z,1012.46
2018-09-06T07:02:31.286Z,1012.47
2018-09-06T07:03:31.634Z,1012.51
2018-09-06T07:04:31.407Z,1012.53
2018-09-06T07:05:31.236Z,1012.5
2018-09-06T07:06:31.165Z,1012.53
2018-09-06T07:07:31.537Z,1012.57
2018-09-06T07:08:31.560Z,1012.54
2018-09-06T07:09:31.234Z,1012.5
2018-09-06T07:10:31.247Z,1012.57
2018-09-06T07:11:31.508Z,1012.54
2018-09-06T07:12:31.042Z,1012.54
2018-09-06T07:13:31.128Z,1012.54
2018-09-06T07:14:31.178Z,1012.57
2018-09-06T07:15:31.440Z,1012.59
2018-09-06T07:16:31.271Z,1012.55
2018-09-06T07:17:31.193Z,1012.53
2018-09-06T07:18:31.744Z,1012.55
2018-09-06T07:19:31.577Z,1012.59
2018-09-06T07:20:31.183Z,1012.56
2018-09-06T07:21:31.255Z,1012.59
2018-09-06T07:22:31.571Z,1012.59
2018-09-06T07:23:31.266Z,1012.63
2018-09-06T07:24:31.120Z,1012.62
2018-09-06T07:25:31.346Z,1012.62
2018-09-06T07:26:31.765Z,1012.56
2018-09-06T07:27:31.142Z,1012.55
2018-09-06T07:28:31.232Z,1012.55
2018-09-06T07:29:31.201Z,1012.52
2018-09-06T07:30:31.516Z,1012.52
2018-09-06T07:31:31.553Z,1012.53
2018-09-06T07:32:31.353Z,1012.54
2018-09-06T07:33:31.432Z,1012.6
2018-09-06T07:34:31.265Z,1012.52
2018-09-06T07:35:31.356Z,1012.56
2018-09-06T07:36:31.456Z,1012.56
2018-09-06T07:37:31.266Z,1012.52
2018-09-06T07:38:31.095Z,1012.55
2018-09-06T07:39:31.194Z,1012.52
2018-09-06T07:40:31.267Z,1012.53
2018-09-06T07:41:31.861Z,1012.5
2018-09-06T07:42:31.083Z,1012.5
2018-09-06T07:43:31.046Z,1012.52
2018-09-06T07:44:31.145Z,1012.47
2018-09-06T07:45:31.315Z,1012.51
2018-09-06T07:46:31.497Z,1012.5
2018-09-06T07:47:31.317Z,1012.54
2018-09-06T07:48:31.113Z,1012.5
2018-09-06T07:49:31.347Z,1012.5
2018-09-06T07:50:31.175Z,1012.48
2018-09-06T07:51:31.909Z,1012.49
2018-09-06T07:52:31.240Z,1012.5
2018-09-06T07:53:31.378Z,1012.52
2018-09-06T07:54:31.141Z,1012.54
2018-09-06T07:55:31.270Z,1012.53
2018-09-06T07:56:31.239Z,1012.54
2018-09-06T07:57:31.491Z,1012.55
2018-09-06T07:58:31.195Z,1012.55
2018-09-06T07:59:31.204Z,1012.51
2018-09-06T08:00:31.232Z,1012.54
2018-09-06T08:01:31.432Z,1012.5
2018-09-06T08:02:31.284Z,1012.51
2018-09-06T08:03:31.337Z,1012.54
2018-09-06T08:04:31.292Z,1012.51
2018-09-06T08:05:31.805Z,1012.48
2018-09-06T08:06:31.112Z,1012.48
2018-09-06T08:07:31.202Z,1012.46
2018-09-06T08:08:31.383Z,1012.46
2018-09-06T08:09:31.228Z,1012.46
2018-09-06T08:10:31.208Z,1012.49
2018-09-06T08:11:31.442Z,1012.48
2018-09-06T08:12:31.110Z,1012.5
2018-09-06T08:13:31.235Z,1012.52
2018-09-06T08:14:31.252Z,1012.49
2018-09-06T08:15:31.694Z,1012.48
2018-09-06T08:16:31.310Z,1012.49
2018-09-06T08:17:31.231Z,1012.52
2018-09-06T08:18:31.200Z,1012.46
2018-09-06T08:19:31.066Z,1012.44
2018-09-06T08:20:31.472Z,1012.45
2018-09-06T08:21:31.327Z,1012.46
2018-09-06T08:22:31.371Z,1012.41
2018-09-06T08:23:31.287Z,1012.44
2018-09-06T08:24:31.213Z,1012.46
2018-09-06T08:25:31.103Z,1012.42
2018-09-06T08:26:31.439Z,1012.42
2018-09-06T08:27:31.286Z,1012.4
2018-09-06T08:28:31.460Z,1012.43
2018-09-06T08:29:31.164Z,1012.42
2018-09-06T08:30:31.499Z,1012.41
2018-09-06T08:31:31.551Z,1012.4
2018-09-06T08:32:31.220Z,1012.38
2018-09-06T08:33:31.284Z,1012.4
2018-09-06T08:34:31.128Z,1012.4
2018-09-06T08:35:31.346Z,1012.4
2018-09-06T08:36:31.270Z,1012.37
2018-09-06T08:37:31.191Z,1012.35
2018-09-06T08:38:31.294Z,1012.33
2018-09-06T08:39:31.218Z,1012.3
2018-09-06T08:40:31.147Z,1012.28
2018-09-06T08:41:31.528Z,1012.24
2018-09-06T08:42:31.555Z,1012.31
2018-09-06T08:43:31.211Z,1012.29
2018-09-06T08:44:31.205Z,1012.28
2018-09-06T08:45:31.651Z,1012.27
2018-09-06T08:46:31.422Z,1012.31
2018-09-06T08:47:31.354Z,1012.32
2018-09-06T08:48:31.294Z,1012.35
2018-09-06T08:49:31.512Z,1012.31
2018-09-06T08:50:31.171Z,1012.35
2018-09-06T08:51:31.329Z,1012.33
2018-09-06T08:52:31.728Z,1012.34
2018-09-06T08:53:31.243Z,1012.34
2018-09-06T08:54:31.204Z,1012.35
2018-09-06T08:55:31.276Z,1012.36
2018-09-06T08:56:31.248Z,1012.34
2018-09-06T08:57:31.137Z,1012.35
2018-09-06T08:58:31.505Z,1012.37
2018-09-06T08:59:31.200Z,1012.37
2018-09-06T09:00:31.350Z,1012.36
2018-09-06T09:01:31.167Z,1012.39
2018-09-06T09:02:31.635Z,1012.38
2018-09-06T09:03:31.197Z,1012.39
2018-09-06T09:04:31.470Z,1012.38
2018-09-06T09:05:31.258Z,1012.34
2018-09-06T09:06:31.194Z,1012.33
2018-09-06T09:07:31.497Z,1012.35
2018-09-06T09:08:31.438Z,1012.34
2018-09-06T09:09:31.256Z,1012.31
2018-09-06T09:10:31.163Z,1012.33
2018-09-06T09:11:31.230Z,1012.29
2018-09-06T09:12:31.523Z,1012.27
2018-09-06T09:13:31.540Z,1012.27
2018-09-06T09:14:31.182Z,1012.25
2018-09-06T09:15:31.719Z,1012.24
2018-09-06T09:16:31.145Z,1012.22
2018-09-06T09:17:31.386Z,1012.21
2018-09-06T09:18:31.317Z,1012.19
2018-09-06T09:19:31.111Z,1012.18
2018-09-06T09:20:31.152Z,1012.18
2018-09-06T09:21:31.613Z,1012.19
2018-09-06T09:22:31.260Z,1012.16
2018-09-06T09:23:31.387Z,1012.17
2018-09-06T09:24:31.076Z,1012.21
2018-09-06T09:25:31.336Z,1012.15
2018-09-06T09:26:31.367Z,1012.12
2018-09-06T09:27:31.144Z,1012.14
2018-09-06T09:28:31.463Z,1012.12
2018-09-06T09:29:31.156Z,1012.17
2018-09-06T09:30:31.230Z,1012.13
2018-09-06T09:31:31.207Z,1012.12
2018-09-06T09:32:31.328Z,1012.09
2018-09-06T09:33:31.094Z,1012.08
2018-09-06T09:34:31.134Z,1012.1
2018-09-06T09:35:31.315Z,1012.13
2018-09-06T09:36:31.359Z,1012.12
2018-09-06T09:37:31.102Z,1012.13
2018-09-06T09:38:31.259Z,1012.13
2018-09-06T09:39:31.128Z,1012.15
2018-09-06T09:40:31.397Z,1012.12
2018-09-06T09:41:31.124Z,1012.1
2018-09-06T09:42:31.321Z,1012.12
2018-09-06T09:43:31.408Z,1012.11
2018-09-06T09:44:31.314Z,1012.06
2018-09-06T09:45:31.223Z,1012.1
2018-09-06T09:48:31.261Z,1012.02
2018-09-06T09:49:31.386Z,1012.03
2018-09-06T09:51:31.302Z,1012.01
2018-09-06T09:52:31.700Z,1012.01
2018-09-06T09:53:31.530Z,1011.96
2018-09-06T09:54:31.120Z,1011.99
2018-09-06T09:55:31.298Z,1011.98
2018-09-06T09:56:31.235Z,1011.91
2018-09-06T09:57:31.118Z,1011.85
2018-09-06T09:58:31.330Z,1011.84
2018-09-06T09:59:31.120Z,1011.84
2018-09-06T10:00:31.182Z,1011.8
2018-09-06T10:01:31.077Z,1011.8
2018-09-06T10:02:31.367Z,1011.8
2018-09-06T10:03:31.185Z,1011.77
2018-09-06T10:04:31.246Z,1011.76
2018-09-06T10:05:31.215Z,1011.81
2018-09-06T10:06:31.532Z,1011.77
2018-09-06T10:07:31.499Z,1011.75
2018-09-06T10:08:31.218Z,1011.73
2018-09-06T10:09:31.381Z,1011.74
2018-09-06T10:10:31.049Z,1011.71
2018-09-06T10:11:31.446Z,1011.68
2018-09-06T10:12:31.016Z,1011.65
2018-09-06T10:13:31.083Z,1011.66
2018-09-06T10:14:31.278Z,1011.64
2018-09-06T10:15:31.230Z,1011.62
2018-09-06T10:16:31.173Z,1011.62
2018-09-06T10:17:31.471Z,1011.63
2018-09-06T10:18:31.131Z,1011.61
2018-09-06T10:19:31.184Z,1011.63
2018-09-06T10:20:31.286Z,1011.6
2018-09-06T10:21:31.153Z,1011.62
2018-09-06T10:22:31.273Z,1011.57
2018-09-06T10:23:31.297Z,1011.62
2018-09-06T10:24:31.354Z,1011.6
2018-09-06T10:25:31.293Z,1011.6
2018-09-06T10:26:31.260Z,1011.58
2018-09-06T10:27:31.082Z,1011.52
2018-09-06T10:28:31.272Z,1011.51
2018-09-06T10:29:31.106Z,1011.53
2018-09-06T10:30:31.220Z,1011.52
2018-09-06T10:31:31.231Z,1011.42
2018-09-06T10:32:31.030Z,1011.43
2018-09-06T10:33:31.219Z,1011.47
2018-09-06T10:34:31.116Z,1011.47
2018-09-06T10:35:31.426Z,1011.42
2018-09-06T10:36:31.311Z,1011.4
2018-09-06T10:37:31.466Z,1011.38
2018-09-06T10:38:31.094Z,1011.35
2018-09-06T10:39:31.296Z,1011.37
2018-09-06T10:40:31.424Z,1011.37
2018-09-06T10:41:31.339Z,1011.31
2018-09-06T10:42:31.006Z,1011.28
2018-09-06T10:43:31.073Z,1011.31
2018-09-06T10:44:31.486Z,1011.29
2018-09-06T10:45:31.117Z,1011.22
2018-09-06T10:46:31.161Z,1011.21
2018-09-06T10:47:31.178Z,1011.24
2018-09-06T10:48:31.442Z,1011.22
2018-09-06T10:49:31.234Z,1011.24
2018-09-06T10:50:31.249Z,1011.27
2018-09-06T10:51:31.356Z,1011.19
2018-09-06T10:52:31.111Z,1011.18
2018-09-06T10:53:31.203Z,1011.14
2018-09-06T10:54:31.312Z,1011.14
2018-09-06T10:55:31.157Z,1011.12
2018-09-06T10:56:31.306Z,1011.09
2018-09-06T10:57:31.191Z,1011.12
2018-09-06T10:58:31.111Z,1011.14
2018-09-06T10:59:31.212Z,1011.09
2018-09-06T11:00:31.448Z,1011.11
2018-09-06T11:01:31.381Z,1011.14
2018-09-06T11:02:31.261Z,1011.13
2018-09-06T11:03:31.274Z,1011.13
2018-09-06T11:04:32.064Z,1011.09
2018-09-06T11:05:31.129Z,1011.11
2018-09-06T11:06:31.257Z,1011.06
2018-09-06T11:07:31.295Z,1011.01
2018-09-06T11:08:31.229Z,1011.02
2018-09-06T11:09:31.012Z,1010.96
2018-09-06T11:10:31.771Z,1010.96
2018-09-06T11:11:31.188Z,1010.94
2018-09-06T11:12:31.203Z,1010.97
2018-09-06T11:13:31.260Z,1011.02
2018-09-06T11:14:31.270Z,1010.99
2018-09-06T11:15:31.215Z,1010.98
2018-09-06T11:16:31.175Z,1010.97
2018-09-06T11:17:31.238Z,1011
2018-09-06T11:18:31.460Z,1010.95
2018-09-06T11:19:31.375Z,1010.89
2018-09-06T11:20:31.470Z,1010.97
2018-09-06T11:21:31.378Z,1010.92
2018-09-06T11:22:32.695Z,1010.9
2018-09-06T11:23:31.515Z,1010.9
2018-09-06T11:24:31.278Z,1010.91
2018-09-06T11:25:31.184Z,1010.89
2018-09-06T11:26:31.130Z,1010.91
2018-09-06T11:27:31.400Z,1010.91
2018-09-06T11:28:31.544Z,1010.86
2018-09-06T11:29:31.247Z,1010.87
2018-09-06T11:30:31.083Z,1010.82
2018-09-06T11:31:31.270Z,1010.78
2018-09-06T11:32:31.067Z,1010.8
2018-09-06T11:33:31.173Z,1010.78
2018-09-06T11:34:31.399Z,1010.77
2018-09-06T11:35:31.242Z,1010.82
2018-09-06T11:36:31.362Z,1010.8
2018-09-06T11:37:31.272Z,1010.78
2018-09-06T11:38:31.265Z,1010.8
2018-09-06T11:39:31.135Z,1010.81
2018-09-06T11:40:31.816Z,1010.82
2018-09-06T11:41:31.375Z,1010.85
2018-09-06T11:42:31.034Z,1010.77
2018-09-06T11:43:31.689Z,1010.73
2018-09-06T11:44:31.249Z,1010.75
2018-09-06T11:45:31.112Z,1010.76
2018-09-06T11:46:31.222Z,1010.75
2018-09-06T11:47:31.224Z,1010.74
2018-09-06T11:48:31.319Z,1010.7
2018-09-06T11:49:31.265Z,1010.73
2018-09-06T11:50:31.202Z,1010.73
2018-09-06T11:51:31.149Z,1010.71
2018-09-06T11:52:31.237Z,1010.68
2018-09-06T11:53:31.054Z,1010.7
2018-09-06T11:54:31.218Z,1010.68
2018-09-06T11:55:31.305Z,1010.65
2018-09-06T11:56:31.288Z,1010.61
2018-09-06T11:57:31.179Z,1010.61
2018-09-06T11:58:31.149Z,1010.62
2018-09-06T11:59:31.068Z,1010.61
2018-09-06T12:00:31.069Z,1010.61
2018-09-06T12:01:31.144Z,1010.57
2018-09-06T12:02:31.269Z,1010.59
2018-09-06T12:03:31.418Z,1010.58
2018-09-06T12:04:34.100Z,1010.54
2018-09-06T12:05:31.265Z,1010.57
2018-09-06T12:06:31.239Z,1010.6
2018-09-06T12:07:31.365Z,1010.59
2018-09-06T12:08:31.074Z,1010.55
2018-09-06T12:09:31.053Z,1010.52
2018-09-06T12:10:31.094Z,1010.54
2018-09-06T12:11:31.141Z,1010.49